sensor_id;sensor_type;location;lat;lon;timestamp;P1;durP1;ratioP1;P2;durP2;ratioP2
4385;SDS011;2207;53.540;10.042;2024-03-08T00:01:53;21.87;;;12.70;;
4385;SDS011;2207;53.540;10.042;2024-03-08T00:04:19;22.77;;;13.40;;
4385;SDS011;2207;53.540;10.042;2024-03-08T00:06:48;24.23;;;13.73;;
4385;SDS011;2207;53.540;10.042;2024-03-08T00:09:15;22.03;;;10.87;;
4385;SDS011;2207;53.540;10.042;2024-03-08T00:11:42;26.73;;;14.37;;
4385;SDS011;2207;53.540;10.042;2024-03-08T00:14:09;25.03;;;14.17;;
4385;SDS011;2207;53.540;10.042;2024-03-08T00:16:36;11.30;;;5.90;;
4385;SDS011;2207;53.540;10.042;2024-03-08T00:19:03;28.33;;;13.10;;
4385;SDS011;2207;53.540;10.042;2024-03-08T00:21:30;27.07;;;12.47;;
4385;SDS011;2207;53.540;10.042;2024-03-08T00:23:58;26.53;;;12.90;;
4385;SDS011;2207;53.540;10.042;2024-03-08T00:26:25;25.90;;;14.93;;
4385;SDS011;2207;53.540;10.042;2024-03-08T00:28:52;23.73;;;12.10;;
4385;SDS011;2207;53.540;10.042;2024-03-08T00:31:19;28.07;;;14.40;;
4385;SDS011;2207;53.540;10.042;2024-03-08T00:33:46;25.60;;;14.13;;
4385;SDS011;2207;53.540;10.042;2024-03-08T00:36:13;24.60;;;14.23;;
4385;SDS011;2207;53.540;10.042;2024-03-08T00:38:40;29.97;;;15.10;;
4385;SDS011;2207;53.540;10.042;2024-03-08T00:41:09;26.60;;;13.80;;
4385;SDS011;2207;53.540;10.042;2024-03-08T00:43:35;27.07;;;14.33;;
4385;SDS011;2207;53.540;10.042;2024-03-08T00:46:02;25.83;;;13.13;;
4385;SDS011;2207;53.540;10.042;2024-03-08T00:48:29;26.07;;;14.07;;
4385;SDS011;2207;53.540;10.042;2024-03-08T00:50:57;25.13;;;13.33;;
4385;SDS011;2207;53.540;10.042;2024-03-08T00:53:23;28.10;;;13.77;;
4385;SDS011;2207;53.540;10.042;2024-03-08T00:55:50;21.83;;;12.50;;
4385;SDS011;2207;53.540;10.042;2024-03-08T00:58:19;19.97;;;11.67;;
4385;SDS011;2207;53.540;10.042;2024-03-08T01:00:46;26.90;;;13.63;;
4385;SDS011;2207;53.540;10.042;2024-03-08T01:03:13;18.87;;;10.03;;
4385;SDS011;2207;53.540;10.042;2024-03-08T01:05:39;21.57;;;10.60;;
4385;SDS011;2207;53.540;10.042;2024-03-08T01:08:06;26.80;;;15.53;;
4385;SDS011;2207;53.540;10.042;2024-03-08T01:10:36;25.97;;;13.40;;
4385;SDS011;2207;53.540;10.042;2024-03-08T01:13:03;26.07;;;11.73;;
4385;SDS011;2207;53.540;10.042;2024-03-08T01:15:32;27.40;;;14.13;;
4385;SDS011;2207;53.540;10.042;2024-03-08T01:18:01;26.17;;;12.63;;
4385;SDS011;2207;53.540;10.042;2024-03-08T01:20:28;31.43;;;15.50;;
4385;SDS011;2207;53.540;10.042;2024-03-08T01:22:54;25.07;;;14.80;;
4385;SDS011;2207;53.540;10.042;2024-03-08T01:25:21;20.53;;;10.77;;
4385;SDS011;2207;53.540;10.042;2024-03-08T01:27:48;24.10;;;13.40;;
4385;SDS011;2207;53.540;10.042;2024-03-08T01:30:15;20.77;;;11.33;;
4385;SDS011;2207;53.540;10.042;2024-03-08T01:32:44;24.10;;;13.83;;
4385;SDS011;2207;53.540;10.042;2024-03-08T01:35:11;22.87;;;12.40;;
4385;SDS011;2207;53.540;10.042;2024-03-08T01:37:38;25.87;;;12.97;;
4385;SDS011;2207;53.540;10.042;2024-03-08T01:40:05;27.77;;;12.67;;
4385;SDS011;2207;53.540;10.042;2024-03-08T01:42:33;28.87;;;15.30;;
4385;SDS011;2207;53.540;10.042;2024-03-08T01:45:03;33.43;;;16.13;;
4385;SDS011;2207;53.540;10.042;2024-03-08T01:47:30;32.73;;;15.37;;
4385;SDS011;2207;53.540;10.042;2024-03-08T01:49:59;29.30;;;15.83;;
4385;SDS011;2207;53.540;10.042;2024-03-08T01:52:28;24.30;;;13.40;;
4385;SDS011;2207;53.540;10.042;2024-03-08T01:54:57;28.40;;;15.73;;
4385;SDS011;2207;53.540;10.042;2024-03-08T01:57:25;25.20;;;13.70;;
4385;SDS011;2207;53.540;10.042;2024-03-08T01:59:53;28.83;;;15.47;;
4385;SDS011;2207;53.540;10.042;2024-03-08T02:02:20;27.93;;;16.23;;
4385;SDS011;2207;53.540;10.042;2024-03-08T02:04:48;31.80;;;15.13;;
4385;SDS011;2207;53.540;10.042;2024-03-08T02:07:19;26.90;;;14.27;;
4385;SDS011;2207;53.540;10.042;2024-03-08T02:09:47;27.17;;;13.63;;
4385;SDS011;2207;53.540;10.042;2024-03-08T02:12:13;27.93;;;14.97;;
4385;SDS011;2207;53.540;10.042;2024-03-08T02:14:40;30.97;;;16.10;;
4385;SDS011;2207;53.540;10.042;2024-03-08T02:17:08;38.40;;;18.70;;
4385;SDS011;2207;53.540;10.042;2024-03-08T02:19:37;32.47;;;16.90;;
4385;SDS011;2207;53.540;10.042;2024-03-08T02:22:05;30.77;;;15.83;;
4385;SDS011;2207;53.540;10.042;2024-03-08T02:24:32;32.63;;;16.47;;
4385;SDS011;2207;53.540;10.042;2024-03-08T02:26:59;29.03;;;16.03;;
4385;SDS011;2207;53.540;10.042;2024-03-08T02:29:26;28.20;;;13.93;;
4385;SDS011;2207;53.540;10.042;2024-03-08T02:31:54;29.33;;;14.30;;
4385;SDS011;2207;53.540;10.042;2024-03-08T02:34:20;29.30;;;15.50;;
4385;SDS011;2207;53.540;10.042;2024-03-08T02:36:47;29.73;;;15.63;;
4385;SDS011;2207;53.540;10.042;2024-03-08T02:39:15;31.97;;;16.93;;
4385;SDS011;2207;53.540;10.042;2024-03-08T02:41:44;37.77;;;18.07;;
4385;SDS011;2207;53.540;10.042;2024-03-08T02:44:11;37.23;;;17.07;;
4385;SDS011;2207;53.540;10.042;2024-03-08T02:46:39;29.03;;;14.83;;
4385;SDS011;2207;53.540;10.042;2024-03-08T02:49:06;29.53;;;15.70;;
4385;SDS011;2207;53.540;10.042;2024-03-08T02:51:33;29.60;;;14.53;;
4385;SDS011;2207;53.540;10.042;2024-03-08T02:54:00;28.27;;;14.70;;
4385;SDS011;2207;53.540;10.042;2024-03-08T02:56:30;32.37;;;16.60;;
4385;SDS011;2207;53.540;10.042;2024-03-08T02:59:00;34.07;;;16.40;;
4385;SDS011;2207;53.540;10.042;2024-03-08T03:01:26;38.70;;;18.17;;
4385;SDS011;2207;53.540;10.042;2024-03-08T03:03:53;30.47;;;15.37;;
4385;SDS011;2207;53.540;10.042;2024-03-08T03:06:20;26.83;;;12.80;;
4385;SDS011;2207;53.540;10.042;2024-03-08T03:08:47;29.70;;;14.53;;
4385;SDS011;2207;53.540;10.042;2024-03-08T03:11:14;28.00;;;14.07;;
4385;SDS011;2207;53.540;10.042;2024-03-08T03:13:43;26.37;;;13.70;;
4385;SDS011;2207;53.540;10.042;2024-03-08T03:16:16;28.27;;;14.33;;
4385;SDS011;2207;53.540;10.042;2024-03-08T03:18:44;30.83;;;16.17;;
4385;SDS011;2207;53.540;10.042;2024-03-08T03:21:11;23.93;;;11.70;;
4385;SDS011;2207;53.540;10.042;2024-03-08T03:23:38;30.57;;;15.33;;
4385;SDS011;2207;53.540;10.042;2024-03-08T03:26:07;24.27;;;12.87;;
4385;SDS011;2207;53.540;10.042;2024-03-08T03:28:36;30.30;;;15.67;;
4385;SDS011;2207;53.540;10.042;2024-03-08T03:31:05;32.57;;;15.63;;
4385;SDS011;2207;53.540;10.042;2024-03-08T03:33:35;30.67;;;16.40;;
4385;SDS011;2207;53.540;10.042;2024-03-08T03:36:03;34.07;;;16.23;;
4385;SDS011;2207;53.540;10.042;2024-03-08T03:38:31;33.90;;;16.27;;
4385;SDS011;2207;53.540;10.042;2024-03-08T03:40:59;31.87;;;15.57;;
4385;SDS011;2207;53.540;10.042;2024-03-08T03:43:35;33.97;;;16.97;;
4385;SDS011;2207;53.540;10.042;2024-03-08T03:46:04;34.57;;;15.70;;
4385;SDS011;2207;53.540;10.042;2024-03-08T03:48:35;29.23;;;13.67;;
4385;SDS011;2207;53.540;10.042;2024-03-08T03:51:02;36.87;;;17.23;;
4385;SDS011;2207;53.540;10.042;2024-03-08T03:53:29;33.47;;;16.50;;
4385;SDS011;2207;53.540;10.042;2024-03-08T03:55:56;30.90;;;16.23;;
4385;SDS011;2207;53.540;10.042;2024-03-08T03:58:24;27.97;;;14.17;;
4385;SDS011;2207;53.540;10.042;2024-03-08T04:00:52;29.27;;;14.50;;
4385;SDS011;2207;53.540;10.042;2024-03-08T04:03:20;36.73;;;17.30;;
4385;SDS011;2207;53.540;10.042;2024-03-08T04:05:47;30.50;;;14.80;;
4385;SDS011;2207;53.540;10.042;2024-03-08T04:08:14;35.30;;;16.30;;
4385;SDS011;2207;53.540;10.042;2024-03-08T04:10:42;21.27;;;10.97;;
4385;SDS011;2207;53.540;10.042;2024-03-08T04:13:09;30.70;;;16.63;;
4385;SDS011;2207;53.540;10.042;2024-03-08T04:15:35;32.80;;;15.53;;
4385;SDS011;2207;53.540;10.042;2024-03-08T04:18:03;28.30;;;14.20;;
4385;SDS011;2207;53.540;10.042;2024-03-08T04:20:31;26.53;;;14.43;;
4385;SDS011;2207;53.540;10.042;2024-03-08T04:22:58;29.83;;;13.90;;
4385;SDS011;2207;53.540;10.042;2024-03-08T04:25:25;34.73;;;15.70;;
4385;SDS011;2207;53.540;10.042;2024-03-08T04:27:53;37.10;;;18.40;;
4385;SDS011;2207;53.540;10.042;2024-03-08T04:30:19;32.47;;;16.03;;
4385;SDS011;2207;53.540;10.042;2024-03-08T04:32:47;35.10;;;17.00;;
4385;SDS011;2207;53.540;10.042;2024-03-08T04:35:14;28.87;;;13.10;;
4385;SDS011;2207;53.540;10.042;2024-03-08T04:37:42;39.40;;;19.87;;
4385;SDS011;2207;53.540;10.042;2024-03-08T04:40:10;29.00;;;15.20;;
4385;SDS011;2207;53.540;10.042;2024-03-08T04:42:38;39.03;;;19.30;;
4385;SDS011;2207;53.540;10.042;2024-03-08T04:45:06;35.73;;;15.67;;
4385;SDS011;2207;53.540;10.042;2024-03-08T04:47:36;36.90;;;17.50;;
4385;SDS011;2207;53.540;10.042;2024-03-08T04:50:03;26.13;;;13.73;;
4385;SDS011;2207;53.540;10.042;2024-03-08T04:52:30;30.80;;;12.33;;
4385;SDS011;2207;53.540;10.042;2024-03-08T04:54:59;32.10;;;16.03;;
4385;SDS011;2207;53.540;10.042;2024-03-08T04:57:27;33.27;;;17.03;;
4385;SDS011;2207;53.540;10.042;2024-03-08T04:59:53;33.07;;;15.70;;
4385;SDS011;2207;53.540;10.042;2024-03-08T05:02:20;28.37;;;12.37;;
4385;SDS011;2207;53.540;10.042;2024-03-08T05:04:48;35.03;;;16.90;;
4385;SDS011;2207;53.540;10.042;2024-03-08T05:07:15;35.93;;;15.80;;
4385;SDS011;2207;53.540;10.042;2024-03-08T05:09:42;26.97;;;14.87;;
4385;SDS011;2207;53.540;10.042;2024-03-08T05:12:17;32.40;;;12.20;;
4385;SDS011;2207;53.540;10.042;2024-03-08T05:14:44;38.50;;;17.60;;
4385;SDS011;2207;53.540;10.042;2024-03-08T05:17:14;37.93;;;17.43;;
4385;SDS011;2207;53.540;10.042;2024-03-08T05:19:41;35.93;;;17.60;;
4385;SDS011;2207;53.540;10.042;2024-03-08T05:22:08;30.07;;;15.57;;
4385;SDS011;2207;53.540;10.042;2024-03-08T05:24:35;31.07;;;13.30;;
4385;SDS011;2207;53.540;10.042;2024-03-08T05:27:02;26.27;;;12.63;;
4385;SDS011;2207;53.540;10.042;2024-03-08T05:29:30;34.73;;;16.43;;
4385;SDS011;2207;53.540;10.042;2024-03-08T05:31:58;21.57;;;8.30;;
4385;SDS011;2207;53.540;10.042;2024-03-08T05:34:25;28.60;;;14.27;;
4385;SDS011;2207;53.540;10.042;2024-03-08T05:36:53;33.13;;;17.03;;
4385;SDS011;2207;53.540;10.042;2024-03-08T05:39:20;18.40;;;9.60;;
4385;SDS011;2207;53.540;10.042;2024-03-08T05:41:47;41.37;;;15.03;;
4385;SDS011;2207;53.540;10.042;2024-03-08T05:44:14;30.83;;;16.23;;
4385;SDS011;2207;53.540;10.042;2024-03-08T05:46:43;32.33;;;15.37;;
4385;SDS011;2207;53.540;10.042;2024-03-08T05:49:11;17.03;;;8.10;;
4385;SDS011;2207;53.540;10.042;2024-03-08T05:51:39;38.97;;;18.40;;
4385;SDS011;2207;53.540;10.042;2024-03-08T05:54:07;32.30;;;16.17;;
4385;SDS011;2207;53.540;10.042;2024-03-08T05:56:35;28.63;;;13.57;;
4385;SDS011;2207;53.540;10.042;2024-03-08T05:59:02;33.40;;;16.33;;
4385;SDS011;2207;53.540;10.042;2024-03-08T06:01:29;27.57;;;12.97;;
4385;SDS011;2207;53.540;10.042;2024-03-08T06:03:58;32.47;;;15.97;;
4385;SDS011;2207;53.540;10.042;2024-03-08T06:06:24;30.23;;;15.00;;
4385;SDS011;2207;53.540;10.042;2024-03-08T06:08:52;24.57;;;11.00;;
4385;SDS011;2207;53.540;10.042;2024-03-08T06:11:19;25.70;;;11.40;;
4385;SDS011;2207;53.540;10.042;2024-03-08T06:13:46;34.80;;;14.83;;
4385;SDS011;2207;53.540;10.042;2024-03-08T06:16:13;35.47;;;16.80;;
4385;SDS011;2207;53.540;10.042;2024-03-08T06:18:40;32.17;;;15.43;;
4385;SDS011;2207;53.540;10.042;2024-03-08T06:21:08;36.87;;;17.40;;
4385;SDS011;2207;53.540;10.042;2024-03-08T06:23:36;15.03;;;7.37;;
4385;SDS011;2207;53.540;10.042;2024-03-08T06:26:04;32.30;;;16.93;;
4385;SDS011;2207;53.540;10.042;2024-03-08T06:28:31;28.03;;;13.10;;
4385;SDS011;2207;53.540;10.042;2024-03-08T06:30:59;33.93;;;17.77;;
4385;SDS011;2207;53.540;10.042;2024-03-08T06:33:27;35.20;;;16.83;;
4385;SDS011;2207;53.540;10.042;2024-03-08T06:35:54;38.93;;;17.20;;
4385;SDS011;2207;53.540;10.042;2024-03-08T06:38:23;32.47;;;15.70;;
4385;SDS011;2207;53.540;10.042;2024-03-08T06:40:50;33.90;;;18.23;;
4385;SDS011;2207;53.540;10.042;2024-03-08T06:43:18;28.30;;;14.23;;
4385;SDS011;2207;53.540;10.042;2024-03-08T06:45:45;44.30;;;19.50;;
4385;SDS011;2207;53.540;10.042;2024-03-08T06:48:13;25.97;;;14.20;;
4385;SDS011;2207;53.540;10.042;2024-03-08T06:50:42;33.87;;;17.13;;
4385;SDS011;2207;53.540;10.042;2024-03-08T06:53:09;35.50;;;15.90;;
4385;SDS011;2207;53.540;10.042;2024-03-08T06:55:41;18.23;;;9.67;;
4385;SDS011;2207;53.540;10.042;2024-03-08T06:58:09;35.90;;;19.23;;
4385;SDS011;2207;53.540;10.042;2024-03-08T07:00:36;39.90;;;17.47;;
4385;SDS011;2207;53.540;10.042;2024-03-08T07:03:03;37.33;;;18.07;;
4385;SDS011;2207;53.540;10.042;2024-03-08T07:05:37;32.27;;;15.97;;
4385;SDS011;2207;53.540;10.042;2024-03-08T07:08:05;36.03;;;18.93;;
4385;SDS011;2207;53.540;10.042;2024-03-08T07:10:32;33.13;;;17.43;;
4385;SDS011;2207;53.540;10.042;2024-03-08T07:13:01;26.43;;;12.60;;
4385;SDS011;2207;53.540;10.042;2024-03-08T07:15:28;40.00;;;19.47;;
4385;SDS011;2207;53.540;10.042;2024-03-08T07:17:55;42.53;;;21.10;;
4385;SDS011;2207;53.540;10.042;2024-03-08T07:20:22;39.50;;;20.07;;
4385;SDS011;2207;53.540;10.042;2024-03-08T07:22:49;39.30;;;20.90;;
4385;SDS011;2207;53.540;10.042;2024-03-08T07:25:19;35.87;;;19.37;;
4385;SDS011;2207;53.540;10.042;2024-03-08T07:27:47;39.60;;;20.17;;
4385;SDS011;2207;53.540;10.042;2024-03-08T07:30:19;34.80;;;17.73;;
4385;SDS011;2207;53.540;10.042;2024-03-08T07:33:03;35.60;;;19.37;;
4385;SDS011;2207;53.540;10.042;2024-03-08T07:35:32;36.10;;;19.07;;
4385;SDS011;2207;53.540;10.042;2024-03-08T07:38:01;39.63;;;20.43;;
4385;SDS011;2207;53.540;10.042;2024-03-08T07:40:29;41.20;;;22.40;;
4385;SDS011;2207;53.540;10.042;2024-03-08T07:42:56;34.03;;;18.63;;
4385;SDS011;2207;53.540;10.042;2024-03-08T07:45:25;23.83;;;12.30;;
4385;SDS011;2207;53.540;10.042;2024-03-08T07:47:51;31.03;;;14.60;;
4385;SDS011;2207;53.540;10.042;2024-03-08T07:50:18;40.53;;;20.03;;
4385;SDS011;2207;53.540;10.042;2024-03-08T07:52:47;31.63;;;16.63;;
4385;SDS011;2207;53.540;10.042;2024-03-08T07:55:14;32.93;;;17.23;;
4385;SDS011;2207;53.540;10.042;2024-03-08T07:57:41;34.87;;;18.23;;
4385;SDS011;2207;53.540;10.042;2024-03-08T08:00:13;33.87;;;20.07;;
4385;SDS011;2207;53.540;10.042;2024-03-08T08:02:44;35.87;;;18.37;;
4385;SDS011;2207;53.540;10.042;2024-03-08T08:05:11;37.30;;;19.27;;
4385;SDS011;2207;53.540;10.042;2024-03-08T08:07:38;34.63;;;17.47;;
4385;SDS011;2207;53.540;10.042;2024-03-08T08:10:08;29.37;;;15.07;;
4385;SDS011;2207;53.540;10.042;2024-03-08T08:12:41;36.67;;;19.33;;
4385;SDS011;2207;53.540;10.042;2024-03-08T08:15:08;37.97;;;20.70;;
4385;SDS011;2207;53.540;10.042;2024-03-08T08:17:35;38.60;;;18.53;;
4385;SDS011;2207;53.540;10.042;2024-03-08T08:20:08;27.27;;;13.93;;
4385;SDS011;2207;53.540;10.042;2024-03-08T08:22:36;30.93;;;17.03;;
4385;SDS011;2207;53.540;10.042;2024-03-08T08:25:04;39.87;;;22.23;;
4385;SDS011;2207;53.540;10.042;2024-03-08T08:27:31;37.53;;;20.27;;
4385;SDS011;2207;53.540;10.042;2024-03-08T08:29:58;22.47;;;11.10;;
4385;SDS011;2207;53.540;10.042;2024-03-08T08:32:25;16.03;;;8.30;;
4385;SDS011;2207;53.540;10.042;2024-03-08T08:34:52;33.97;;;17.00;;
4385;SDS011;2207;53.540;10.042;2024-03-08T08:37:20;35.17;;;20.00;;
4385;SDS011;2207;53.540;10.042;2024-03-08T08:39:48;32.77;;;18.40;;
4385;SDS011;2207;53.540;10.042;2024-03-08T08:42:16;34.13;;;18.67;;
4385;SDS011;2207;53.540;10.042;2024-03-08T08:44:43;20.13;;;11.17;;
4385;SDS011;2207;53.540;10.042;2024-03-08T08:47:11;28.30;;;13.77;;
4385;SDS011;2207;53.540;10.042;2024-03-08T08:49:38;30.43;;;13.90;;
4385;SDS011;2207;53.540;10.042;2024-03-08T08:52:05;15.70;;;9.13;;
4385;SDS011;2207;53.540;10.042;2024-03-08T08:54:37;22.43;;;11.30;;
4385;SDS011;2207;53.540;10.042;2024-03-08T08:57:18;28.70;;;16.50;;
4385;SDS011;2207;53.540;10.042;2024-03-08T08:59:59;30.57;;;15.57;;
4385;SDS011;2207;53.540;10.042;2024-03-08T09:02:26;29.37;;;15.83;;
4385;SDS011;2207;53.540;10.042;2024-03-08T09:04:53;26.93;;;15.27;;
4385;SDS011;2207;53.540;10.042;2024-03-08T09:07:24;26.70;;;14.73;;
4385;SDS011;2207;53.540;10.042;2024-03-08T09:09:56;31.47;;;17.33;;
4385;SDS011;2207;53.540;10.042;2024-03-08T09:12:36;33.27;;;15.17;;
4385;SDS011;2207;53.540;10.042;2024-03-08T09:15:05;31.00;;;15.97;;
4385;SDS011;2207;53.540;10.042;2024-03-08T09:17:33;31.83;;;16.87;;
4385;SDS011;2207;53.540;10.042;2024-03-08T09:20:05;25.77;;;14.10;;
4385;SDS011;2207;53.540;10.042;2024-03-08T09:22:33;29.20;;;14.93;;
4385;SDS011;2207;53.540;10.042;2024-03-08T09:27:59;28.33;;;15.20;;
4385;SDS011;2207;53.540;10.042;2024-03-08T09:30:26;26.27;;;15.50;;
4385;SDS011;2207;53.540;10.042;2024-03-08T09:32:54;22.07;;;13.07;;
4385;SDS011;2207;53.540;10.042;2024-03-08T09:35:24;32.10;;;16.93;;
4385;SDS011;2207;53.540;10.042;2024-03-08T09:38:05;15.80;;;8.27;;
4385;SDS011;2207;53.540;10.042;2024-03-08T09:40:38;27.93;;;14.70;;
4385;SDS011;2207;53.540;10.042;2024-03-08T09:43:10;19.10;;;9.97;;
4385;SDS011;2207;53.540;10.042;2024-03-08T09:45:45;27.20;;;16.80;;
4385;SDS011;2207;53.540;10.042;2024-03-08T09:48:16;24.73;;;13.90;;
4385;SDS011;2207;53.540;10.042;2024-03-08T09:50:58;21.13;;;11.20;;
4385;SDS011;2207;53.540;10.042;2024-03-08T09:53:25;22.40;;;14.10;;
4385;SDS011;2207;53.540;10.042;2024-03-08T09:55:54;28.00;;;15.37;;
4385;SDS011;2207;53.540;10.042;2024-03-08T09:58:23;29.03;;;17.60;;
4385;SDS011;2207;53.540;10.042;2024-03-08T10:01:07;22.03;;;11.43;;
4385;SDS011;2207;53.540;10.042;2024-03-08T10:03:34;20.90;;;11.83;;
4385;SDS011;2207;53.540;10.042;2024-03-08T10:06:01;27.13;;;14.47;;
4385;SDS011;2207;53.540;10.042;2024-03-08T10:08:31;27.37;;;11.67;;
4385;SDS011;2207;53.540;10.042;2024-03-08T10:10:58;25.90;;;14.37;;
4385;SDS011;2207;53.540;10.042;2024-03-08T10:13:26;16.90;;;9.73;;
4385;SDS011;2207;53.540;10.042;2024-03-08T10:15:53;16.93;;;10.13;;
4385;SDS011;2207;53.540;10.042;2024-03-08T10:18:20;27.40;;;16.63;;
4385;SDS011;2207;53.540;10.042;2024-03-08T10:20:56;31.30;;;16.63;;
4385;SDS011;2207;53.540;10.042;2024-03-08T10:23:30;37.87;;;16.67;;
4385;SDS011;2207;53.540;10.042;2024-03-08T10:25:57;28.80;;;15.83;;
4385;SDS011;2207;53.540;10.042;2024-03-08T10:28:25;19.43;;;10.03;;
4385;SDS011;2207;53.540;10.042;2024-03-08T10:30:53;31.33;;;16.93;;
4385;SDS011;2207;53.540;10.042;2024-03-08T10:33:23;21.67;;;12.23;;
4385;SDS011;2207;53.540;10.042;2024-03-08T10:35:51;24.13;;;12.90;;
4385;SDS011;2207;53.540;10.042;2024-03-08T10:38:21;22.77;;;13.33;;
4385;SDS011;2207;53.540;10.042;2024-03-08T10:40:50;19.27;;;10.50;;
4385;SDS011;2207;53.540;10.042;2024-03-08T10:43:22;23.57;;;10.80;;
4385;SDS011;2207;53.540;10.042;2024-03-08T10:45:52;27.63;;;14.30;;
4385;SDS011;2207;53.540;10.042;2024-03-08T10:48:39;20.17;;;10.37;;
4385;SDS011;2207;53.540;10.042;2024-03-08T10:51:11;20.27;;;10.60;;
4385;SDS011;2207;53.540;10.042;2024-03-08T10:53:38;21.33;;;10.97;;
4385;SDS011;2207;53.540;10.042;2024-03-08T10:56:06;12.50;;;7.37;;
4385;SDS011;2207;53.540;10.042;2024-03-08T10:58:39;16.27;;;9.07;;
4385;SDS011;2207;53.540;10.042;2024-03-08T11:01:10;18.37;;;10.00;;
4385;SDS011;2207;53.540;10.042;2024-03-08T11:03:45;19.20;;;9.27;;
4385;SDS011;2207;53.540;10.042;2024-03-08T11:06:18;15.87;;;7.97;;
4385;SDS011;2207;53.540;10.042;2024-03-08T11:08:55;18.37;;;7.80;;
4385;SDS011;2207;53.540;10.042;2024-03-08T11:11:24;21.50;;;10.27;;
4385;SDS011;2207;53.540;10.042;2024-03-08T11:13:56;24.70;;;12.50;;
4385;SDS011;2207;53.540;10.042;2024-03-08T11:16:40;15.23;;;8.27;;
4385;SDS011;2207;53.540;10.042;2024-03-08T11:19:26;13.97;;;7.67;;
4385;SDS011;2207;53.540;10.042;2024-03-08T11:22:00;19.47;;;11.30;;
4385;SDS011;2207;53.540;10.042;2024-03-08T11:24:27;23.93;;;12.73;;
4385;SDS011;2207;53.540;10.042;2024-03-08T11:27:03;20.03;;;9.63;;
4385;SDS011;2207;53.540;10.042;2024-03-08T11:29:38;14.10;;;8.37;;
4385;SDS011;2207;53.540;10.042;2024-03-08T11:32:10;11.70;;;7.80;;
4385;SDS011;2207;53.540;10.042;2024-03-08T11:34:38;19.17;;;10.87;;
4385;SDS011;2207;53.540;10.042;2024-03-08T11:37:10;17.37;;;8.83;;
4385;SDS011;2207;53.540;10.042;2024-03-08T11:39:40;14.93;;;8.00;;
4385;SDS011;2207;53.540;10.042;2024-03-08T11:42:12;17.77;;;10.10;;
4385;SDS011;2207;53.540;10.042;2024-03-08T11:44:39;11.57;;;7.40;;
4385;SDS011;2207;53.540;10.042;2024-03-08T11:47:10;17.60;;;7.63;;
4385;SDS011;2207;53.540;10.042;2024-03-08T11:49:37;20.60;;;12.57;;
4385;SDS011;2207;53.540;10.042;2024-03-08T11:52:10;19.80;;;12.07;;
4385;SDS011;2207;53.540;10.042;2024-03-08T11:54:38;21.73;;;11.60;;
4385;SDS011;2207;53.540;10.042;2024-03-08T11:57:05;20.20;;;11.23;;
4385;SDS011;2207;53.540;10.042;2024-03-08T11:59:32;20.03;;;12.97;;
4385;SDS011;2207;53.540;10.042;2024-03-08T12:02:00;11.73;;;6.67;;
4385;SDS011;2207;53.540;10.042;2024-03-08T12:04:29;9.13;;;5.57;;
4385;SDS011;2207;53.540;10.042;2024-03-08T12:06:59;20.63;;;11.93;;
4385;SDS011;2207;53.540;10.042;2024-03-08T12:09:33;14.00;;;6.93;;
4385;SDS011;2207;53.540;10.042;2024-03-08T12:12:01;11.17;;;6.97;;
4385;SDS011;2207;53.540;10.042;2024-03-08T12:14:32;10.97;;;5.90;;
4385;SDS011;2207;53.540;10.042;2024-03-08T12:17:00;16.60;;;9.40;;
4385;SDS011;2207;53.540;10.042;2024-03-08T12:19:27;15.37;;;8.90;;
4385;SDS011;2207;53.540;10.042;2024-03-08T12:21:55;13.33;;;8.57;;
4385;SDS011;2207;53.540;10.042;2024-03-08T12:24:22;12.10;;;6.97;;
4385;SDS011;2207;53.540;10.042;2024-03-08T12:26:49;18.93;;;10.40;;
4385;SDS011;2207;53.540;10.042;2024-03-08T12:29:19;18.37;;;8.70;;
4385;SDS011;2207;53.540;10.042;2024-03-08T12:31:48;14.07;;;8.13;;
4385;SDS011;2207;53.540;10.042;2024-03-08T12:34:18;19.13;;;9.60;;
4385;SDS011;2207;53.540;10.042;2024-03-08T12:36:45;22.33;;;11.43;;
4385;SDS011;2207;53.540;10.042;2024-03-08T12:39:18;21.17;;;10.97;;
4385;SDS011;2207;53.540;10.042;2024-03-08T12:41:51;17.20;;;10.23;;
4385;SDS011;2207;53.540;10.042;2024-03-08T12:44:18;20.33;;;12.47;;
4385;SDS011;2207;53.540;10.042;2024-03-08T12:46:46;21.17;;;14.07;;
4385;SDS011;2207;53.540;10.042;2024-03-08T12:49:13;20.47;;;12.27;;
4385;SDS011;2207;53.540;10.042;2024-03-08T12:51:42;20.40;;;10.43;;
4385;SDS011;2207;53.540;10.042;2024-03-08T12:54:10;19.33;;;11.00;;
4385;SDS011;2207;53.540;10.042;2024-03-08T12:56:38;18.33;;;11.40;;
4385;SDS011;2207;53.540;10.042;2024-03-08T12:59:05;15.90;;;9.27;;
4385;SDS011;2207;53.540;10.042;2024-03-08T13:01:33;17.93;;;10.47;;
4385;SDS011;2207;53.540;10.042;2024-03-08T13:04:02;14.17;;;7.23;;
4385;SDS011;2207;53.540;10.042;2024-03-08T13:06:31;12.57;;;7.57;;
4385;SDS011;2207;53.540;10.042;2024-03-08T13:08:58;19.23;;;10.83;;
4385;SDS011;2207;53.540;10.042;2024-03-08T13:11:30;16.53;;;6.97;;
4385;SDS011;2207;53.540;10.042;2024-03-08T13:14:00;20.53;;;13.70;;
4385;SDS011;2207;53.540;10.042;2024-03-08T13:16:28;14.50;;;7.40;;
4385;SDS011;2207;53.540;10.042;2024-03-08T13:18:55;17.27;;;9.23;;
4385;SDS011;2207;53.540;10.042;2024-03-08T13:21:23;17.67;;;9.53;;
4385;SDS011;2207;53.540;10.042;2024-03-08T13:23:49;16.90;;;8.17;;
4385;SDS011;2207;53.540;10.042;2024-03-08T13:26:18;15.30;;;7.20;;
4385;SDS011;2207;53.540;10.042;2024-03-08T13:28:45;18.03;;;10.17;;
4385;SDS011;2207;53.540;10.042;2024-03-08T13:31:15;17.17;;;8.63;;
4385;SDS011;2207;53.540;10.042;2024-03-08T13:33:42;15.80;;;8.47;;
4385;SDS011;2207;53.540;10.042;2024-03-08T13:36:10;17.07;;;9.80;;
4385;SDS011;2207;53.540;10.042;2024-03-08T13:38:40;21.77;;;12.30;;
4385;SDS011;2207;53.540;10.042;2024-03-08T13:41:09;27.30;;;10.27;;
4385;SDS011;2207;53.540;10.042;2024-03-08T13:43:36;18.80;;;11.57;;
4385;SDS011;2207;53.540;10.042;2024-03-08T13:46:05;19.33;;;10.70;;
4385;SDS011;2207;53.540;10.042;2024-03-08T13:48:33;17.33;;;9.63;;
4385;SDS011;2207;53.540;10.042;2024-03-08T13:51:00;10.73;;;7.10;;
4385;SDS011;2207;53.540;10.042;2024-03-08T13:53:27;14.87;;;8.83;;
4385;SDS011;2207;53.540;10.042;2024-03-08T13:55:54;21.17;;;10.77;;
4385;SDS011;2207;53.540;10.042;2024-03-08T13:58:21;15.87;;;5.70;;
4385;SDS011;2207;53.540;10.042;2024-03-08T14:00:48;13.70;;;7.50;;
4385;SDS011;2207;53.540;10.042;2024-03-08T14:03:16;7.93;;;5.17;;
4385;SDS011;2207;53.540;10.042;2024-03-08T14:05:44;8.70;;;5.87;;
4385;SDS011;2207;53.540;10.042;2024-03-08T14:08:11;25.33;;;11.40;;
4385;SDS011;2207;53.540;10.042;2024-03-08T14:10:39;10.80;;;6.80;;
4385;SDS011;2207;53.540;10.042;2024-03-08T14:13:07;12.47;;;7.70;;
4385;SDS011;2207;53.540;10.042;2024-03-08T14:15:34;16.17;;;9.00;;
4385;SDS011;2207;53.540;10.042;2024-03-08T14:18:01;9.10;;;6.47;;
4385;SDS011;2207;53.540;10.042;2024-03-08T14:20:31;13.97;;;8.40;;
4385;SDS011;2207;53.540;10.042;2024-03-08T14:23:00;8.37;;;5.80;;
4385;SDS011;2207;53.540;10.042;2024-03-08T14:25:27;13.83;;;6.73;;
4385;SDS011;2207;53.540;10.042;2024-03-08T14:27:55;10.53;;;6.70;;
4385;SDS011;2207;53.540;10.042;2024-03-08T14:30:27;13.07;;;6.83;;
4385;SDS011;2207;53.540;10.042;2024-03-08T14:32:59;19.27;;;9.90;;
4385;SDS011;2207;53.540;10.042;2024-03-08T14:35:26;13.83;;;7.30;;
4385;SDS011;2207;53.540;10.042;2024-03-08T14:37:54;17.10;;;8.13;;
4385;SDS011;2207;53.540;10.042;2024-03-08T14:40:23;12.37;;;7.00;;
4385;SDS011;2207;53.540;10.042;2024-03-08T14:42:51;13.47;;;8.13;;
4385;SDS011;2207;53.540;10.042;2024-03-08T14:45:17;16.63;;;8.03;;
4385;SDS011;2207;53.540;10.042;2024-03-08T14:47:45;16.07;;;9.90;;
4385;SDS011;2207;53.540;10.042;2024-03-08T14:50:14;16.53;;;8.70;;